sensor_id;sensor_type;location;lat;lon;timestamp;pressure;altitude;pressure_sealevel;temperature;humidity
8705;BME280;4389;41.932;25.904;2023-04-26T00:01:01;99567.28;;;13.23;100.00
8705;BME280;4389;41.932;25.904;2023-04-26T00:03:29;99560.47;;;13.29;100.00
8705;BME280;4389;41.932;25.904;2023-04-26T00:05:58;99570.34;;;13.12;100.00
8705;BME280;4389;41.932;25.904;2023-04-26T00:08:31;99554.75;;;13.09;100.00
8705;BME280;4389;41.932;25.904;2023-04-26T00:10:59;99561.13;;;13.00;100.00
8705;BME280;4389;41.932;25.904;2023-04-26T00:13:26;99555.44;;;13.11;100.00
8705;BME280;4389;41.932;25.904;2023-04-26T00:15:53;99566.97;;;13.26;100.00
8705;BME280;4389;41.932;25.904;2023-04-26T00:18:20;99551.34;;;13.23;100.00
8705;BME280;4389;41.932;25.904;2023-04-26T00:20:47;99554.69;;;13.25;100.00
8705;BME280;4389;41.932;25.904;2023-04-26T00:23:14;99554.47;;;13.27;100.00
8705;BME280;4389;41.932;25.904;2023-04-26T00:25:41;99554.06;;;13.15;100.00
8705;BME280;4389;41.932;25.904;2023-04-26T00:28:09;99543.56;;;13.22;100.00
8705;BME280;4389;41.932;25.904;2023-04-26T00:30:36;99544.53;;;13.29;100.00
8705;BME280;4389;41.932;25.904;2023-04-26T00:33:06;99549.25;;;13.41;100.00
8705;BME280;4389;41.932;25.904;2023-04-26T00:35:33;99548.56;;;13.47;100.00
8705;BME280;4389;41.932;25.904;2023-04-26T00:38:00;99544.88;;;13.48;100.00
8705;BME280;4389;41.932;25.904;2023-04-26T00:40:27;99536.84;;;13.56;100.00
8705;BME280;4389;41.932;25.904;2023-04-26T00:42:56;99530.34;;;13.59;100.00
8705;BME280;4389;41.932;25.904;2023-04-26T00:45:25;99530.41;;;13.51;100.00
8705;BME280;4389;41.932;25.904;2023-04-26T00:47:52;99530.59;;;13.49;100.00
8705;BME280;4389;41.932;25.904;2023-04-26T00:50:19;99531.34;;;13.35;100.00
8705;BME280;4389;41.932;25.904;2023-04-26T00:52:46;99533.31;;;13.41;100.00
8705;BME280;4389;41.932;25.904;2023-04-26T00:55:14;99522.13;;;13.23;100.00
8705;BME280;4389;41.932;25.904;2023-04-26T00:57:43;99523.97;;;13.23;100.00
8705;BME280;4389;41.932;25.904;2023-04-26T01:00:11;99520.78;;;13.27;100.00
8705;BME280;4389;41.932;25.904;2023-04-26T01:02:40;99526.44;;;13.24;100.00
8705;BME280;4389;41.932;25.904;2023-04-26T01:05:07;99525.47;;;13.17;100.00
8705;BME280;4389;41.932;25.904;2023-04-26T01:07:35;99527.75;;;13.28;100.00
8705;BME280;4389;41.932;25.904;2023-04-26T01:10:03;99520.41;;;13.30;100.00
8705;BME280;4389;41.932;25.904;2023-04-26T01:12:30;99515.78;;;13.32;100.00
8705;BME280;4389;41.932;25.904;2023-04-26T01:14:58;99511.44;;;13.31;100.00
8705;BME280;4389;41.932;25.904;2023-04-26T01:17:25;99513.94;;;13.33;100.00
8705;BME280;4389;41.932;25.904;2023-04-26T01:19:54;99511.56;;;13.15;100.00
8705;BME280;4389;41.932;25.904;2023-04-26T01:22:21;99512.19;;;13.17;100.00
8705;BME280;4389;41.932;25.904;2023-04-26T01:24:50;99509.84;;;13.22;100.00
8705;BME280;4389;41.932;25.904;2023-04-26T01:27:20;99514.94;;;13.32;100.00
8705;BME280;4389;41.932;25.904;2023-04-26T01:29:47;99510.59;;;13.53;100.00
8705;BME280;4389;41.932;25.904;2023-04-26T01:32:13;99516.28;;;13.50;100.00
8705;BME280;4389;41.932;25.904;2023-04-26T01:34:40;99517.59;;;13.32;100.00
8705;BME280;4389;41.932;25.904;2023-04-26T01:37:07;99512.75;;;13.35;100.00
8705;BME280;4389;41.932;25.904;2023-04-26T01:39:34;99509.84;;;13.22;100.00
8705;BME280;4389;41.932;25.904;2023-04-26T01:42:03;99503.91;;;13.20;100.00
8705;BME280;4389;41.932;25.904;2023-04-26T01:44:30;99510.84;;;13.21;100.00
8705;BME280;4389;41.932;25.904;2023-04-26T01:46:57;99512.88;;;13.19;100.00
8705;BME280;4389;41.932;25.904;2023-04-26T01:49:24;99507.56;;;13.19;100.00
8705;BME280;4389;41.932;25.904;2023-04-26T01:51:51;99509.53;;;13.17;100.00
8705;BME280;4389;41.932;25.904;2023-04-26T01:54:18;99506.38;;;13.22;100.00
8705;BME280;4389;41.932;25.904;2023-04-26T01:56:45;99499.75;;;13.18;100.00
8705;BME280;4389;41.932;25.904;2023-04-26T01:59:14;99480.28;;;13.25;100.00
8705;BME280;4389;41.932;25.904;2023-04-26T02:01:41;99480.63;;;13.22;100.00
8705;BME280;4389;41.932;25.904;2023-04-26T02:04:08;99484.59;;;13.26;100.00
8705;BME280;4389;41.932;25.904;2023-04-26T02:06:35;99481.63;;;13.21;100.00
8705;BME280;4389;41.932;25.904;2023-04-26T02:09:02;99487.97;;;13.20;100.00
8705;BME280;4389;41.932;25.904;2023-04-26T02:11:29;99492.19;;;13.29;100.00
8705;BME280;4389;41.932;25.904;2023-04-26T02:13:56;99500.22;;;13.21;100.00
8705;BME280;4389;41.932;25.904;2023-04-26T02:16:24;99500.81;;;13.31;100.00
8705;BME280;4389;41.932;25.904;2023-04-26T02:18:51;99501.47;;;13.33;100.00
8705;BME280;4389;41.932;25.904;2023-04-26T02:21:19;99499.03;;;13.46;100.00
8705;BME280;4389;41.932;25.904;2023-04-26T02:23:46;99493.28;;;13.43;100.00
8705;BME280;4389;41.932;25.904;2023-04-26T02:26:13;99489.16;;;13.40;100.00
8705;BME280;4389;41.932;25.904;2023-04-26T02:28:40;99492.81;;;13.39;100.00
8705;BME280;4389;41.932;25.904;2023-04-26T02:31:07;99496.09;;;13.41;100.00
8705;BME280;4389;41.932;25.904;2023-04-26T02:33:35;99486.72;;;13.31;100.00
8705;BME280;4389;41.932;25.904;2023-04-26T02:36:03;99481.72;;;13.36;100.00
8705;BME280;4389;41.932;25.904;2023-04-26T02:38:32;99501.41;;;13.41;100.00
8705;BME280;4389;41.932;25.904;2023-04-26T02:40:59;99500.66;;;13.33;100.00
8705;BME280;4389;41.932;25.904;2023-04-26T02:43:26;99501.75;;;13.38;100.00
8705;BME280;4389;41.932;25.904;2023-04-26T02:45:53;99505.41;;;13.37;100.00
8705;BME280;4389;41.932;25.904;2023-04-26T02:48:23;99511.22;;;13.18;100.00
8705;BME280;4389;41.932;25.904;2023-04-26T02:50:51;99513.25;;;13.08;100.00
8705;BME280;4389;41.932;25.904;2023-04-26T02:53:18;99516.06;;;13.15;100.00
8705;BME280;4389;41.932;25.904;2023-04-26T02:55:45;99508.25;;;13.13;100.00
8705;BME280;4389;41.932;25.904;2023-04-26T02:58:12;99511.88;;;13.20;100.00
8705;BME280;4389;41.932;25.904;2023-04-26T03:00:44;99506.72;;;13.19;100.00
8705;BME280;4389;41.932;25.904;2023-04-26T03:03:11;99512.19;;;13.25;100.00
8705;BME280;4389;41.932;25.904;2023-04-26T03:05:38;99511.03;;;13.42;100.00
8705;BME280;4389;41.932;25.904;2023-04-26T03:08:08;99508.91;;;13.38;100.00
8705;BME280;4389;41.932;25.904;2023-04-26T03:10:35;99504.47;;;13.30;100.00
8705;BME280;4389;41.932;25.904;2023-04-26T03:13:03;99501.56;;;13.25;100.00
8705;BME280;4389;41.932;25.904;2023-04-26T03:15:29;99504.47;;;13.30;100.00
8705;BME280;4389;41.932;25.904;2023-04-26T03:17:56;99510.84;;;13.21;100.00
8705;BME280;4389;41.932;25.904;2023-04-26T03:20:23;99523.50;;;13.19;100.00
8705;BME280;4389;41.932;25.904;2023-04-26T03:22:50;99525.47;;;13.17;100.00
8705;BME280;4389;41.932;25.904;2023-04-26T03:25:18;99523.84;;;13.16;100.00
8705;BME280;4389;41.932;25.904;2023-04-26T03:27:45;99526.84;;;13.13;100.00
8705;BME280;4389;41.932;25.904;2023-04-26T03:30:13;99522.28;;;12.99;100.00
8705;BME280;4389;41.932;25.904;2023-04-26T03:32:40;99532.91;;;12.99;100.00
8705;BME280;4389;41.932;25.904;2023-04-26T03:35:08;99522.63;;;12.96;100.00
8705;BME280;4389;41.932;25.904;2023-04-26T03:37:35;99526.53;;;13.08;100.00
8705;BME280;4389;41.932;25.904;2023-04-26T03:40:05;99535.81;;;13.12;100.00
8705;BME280;4389;41.932;25.904;2023-04-26T03:42:34;99537.53;;;13.28;100.00
8705;BME280;4389;41.932;25.904;2023-04-26T03:45:02;99528.13;;;13.25;100.00
8705;BME280;4389;41.932;25.904;2023-04-26T03:47:29;99532.38;;;13.34;100.00
8705;BME280;4389;41.932;25.904;2023-04-26T03:49:56;99526.50;;;13.39;100.00
8705;BME280;4389;41.932;25.904;2023-04-26T03:52:23;99537.63;;;13.42;100.00
8705;BME280;4389;41.932;25.904;2023-04-26T03:54:50;99533.06;;;13.28;100.00
8705;BME280;4389;41.932;25.904;2023-04-26T03:57:16;99540.97;;;13.36;100.00
8705;BME280;4389;41.932;25.904;2023-04-26T03:59:45;99544.22;;;13.46;100.00
8705;BME280;4389;41.932;25.904;2023-04-26T04:02:12;99542.88;;;13.50;100.00
8705;BME280;4389;41.932;25.904;2023-04-26T04:04:39;99545.13;;;13.61;100.00
8705;BME280;4389;41.932;25.904;2023-04-26T04:07:06;99542.41;;;13.69;100.00
8705;BME280;4389;41.932;25.904;2023-04-26T04:09:33;99538.00;;;13.76;100.00
8705;BME280;4389;41.932;25.904;2023-04-26T04:11:59;99549.47;;;13.76;100.00
8705;BME280;4389;41.932;25.904;2023-04-26T04:14:27;99551.25;;;13.84;100.00
8705;BME280;4389;41.932;25.904;2023-04-26T04:16:55;99535.19;;;13.92;100.00
8705;BME280;4389;41.932;25.904;2023-04-26T04:19:23;99532.78;;;13.82;100.00
8705;BME280;4389;41.932;25.904;2023-04-26T04:21:50;99544.53;;;13.88;100.00
8705;BME280;4389;41.932;25.904;2023-04-26T04:24:17;99542.00;;;13.94;100.00
8705;BME280;4389;41.932;25.904;2023-04-26T04:26:44;99538.50;;;13.94;100.00
8705;BME280;4389;41.932;25.904;2023-04-26T04:29:11;99533.09;;;14.02;100.00
8705;BME280;4389;41.932;25.904;2023-04-26T04:31:38;99545.06;;;14.06;100.00
8705;BME280;4389;41.932;25.904;2023-04-26T04:34:07;99539.34;;;14.09;100.00
8705;BME280;4389;41.932;25.904;2023-04-26T04:36:35;99544.44;;;14.18;100.00
8705;BME280;4389;41.932;25.904;2023-04-26T04:39:03;99545.75;;;14.22;100.00
8705;BME280;4389;41.932;25.904;2023-04-26T04:41:30;99544.09;;;14.21;100.00
8705;BME280;4389;41.932;25.904;2023-04-26T04:43:59;99540.78;;;14.19;100.00
8705;BME280;4389;41.932;25.904;2023-04-26T04:46:26;99535.69;;;14.10;100.00
8705;BME280;4389;41.932;25.904;2023-04-26T04:48:52;99541.00;;;14.10;99.94
8705;BME280;4389;41.932;25.904;2023-04-26T04:51:21;99540.78;;;14.19;99.78
8705;BME280;4389;41.932;25.904;2023-04-26T04:53:48;99532.28;;;14.16;100.00
8705;BME280;4389;41.932;25.904;2023-04-26T04:56:15;99536.84;;;14.30;99.27
8705;BME280;4389;41.932;25.904;2023-04-26T04:58:42;99530.78;;;14.36;99.48
8705;BME280;4389;41.932;25.904;2023-04-26T05:01:09;99543.81;;;14.31;99.94
8705;BME280;4389;41.932;25.904;2023-04-26T05:03:36;99544.44;;;14.18;100.00
8705;BME280;4389;41.932;25.904;2023-04-26T05:06:03;99549.19;;;14.08;100.00
8705;BME280;4389;41.932;25.904;2023-04-26T05:08:32;99546.69;;;14.07;100.00
8705;BME280;4389;41.932;25.904;2023-04-26T05:10:59;99541.25;;;14.23;100.00
8705;BME280;4389;41.932;25.904;2023-04-26T05:13:26;99534.28;;;14.36;100.00
8705;BME280;4389;41.932;25.904;2023-04-26T05:15:52;99530.34;;;14.32;100.00
8705;BME280;4389;41.932;25.904;2023-04-26T05:18:19;99537.75;;;14.37;100.00
8705;BME280;4389;41.932;25.904;2023-04-26T05:20:46;99535.56;;;14.26;99.96
8705;BME280;4389;41.932;25.904;2023-04-26T05:23:13;99546.88;;;14.42;99.45
8705;BME280;4389;41.932;25.904;2023-04-26T05:25:41;99545.31;;;14.48;100.00
8705;BME280;4389;41.932;25.904;2023-04-26T05:28:08;99529.41;;;14.54;100.00
8705;BME280;4389;41.932;25.904;2023-04-26T05:30:37;99544.72;;;14.81;99.83
8705;BME280;4389;41.932;25.904;2023-04-26T05:33:04;99547.38;;;14.96;98.88
8705;BME280;4389;41.932;25.904;2023-04-26T05:35:31;99541.19;;;15.10;97.62
8705;BME280;4389;41.932;25.904;2023-04-26T05:37:58;99537.66;;;15.24;96.97
8705;BME280;4389;41.932;25.904;2023-04-26T05:40:25;99535.44;;;15.27;95.69
8705;BME280;4389;41.932;25.904;2023-04-26T05:42:53;99547.47;;;15.59;95.74
8705;BME280;4389;41.932;25.904;2023-04-26T05:45:20;99542.13;;;15.59;95.42
8705;BME280;4389;41.932;25.904;2023-04-26T05:47:47;99543.28;;;15.71;94.76
8705;BME280;4389;41.932;25.904;2023-04-26T05:50:14;99549.38;;;15.65;93.41
8705;BME280;4389;41.932;25.904;2023-04-26T05:52:41;99551.81;;;15.81;93.34
8705;BME280;4389;41.932;25.904;2023-04-26T05:55:08;99551.25;;;15.92;90.95
8705;BME280;4389;41.932;25.904;2023-04-26T05:57:35;99559.09;;;16.21;90.03
8705;BME280;4389;41.932;25.904;2023-04-26T06:00:05;99562.25;;;16.31;89.29
8705;BME280;4389;41.932;25.904;2023-04-26T06:02:33;99553.72;;;16.14;89.98
8705;BME280;4389;41.932;25.904;2023-04-26T06:05:00;99549.19;;;16.15;88.91
8705;BME280;4389;41.932;25.904;2023-04-26T06:07:27;99551.50;;;16.24;89.41
8705;BME280;4389;41.932;25.904;2023-04-26T06:09:54;99558.16;;;16.35;87.95
8705;BME280;4389;41.932;25.904;2023-04-26T06:12:21;99547.84;;;16.53;87.48
8705;BME280;4389;41.932;25.904;2023-04-26T06:14:48;99553.19;;;16.53;87.36
8705;BME280;4389;41.932;25.904;2023-04-26T06:17:16;99547.13;;;16.72;87.50
8705;BME280;4389;41.932;25.904;2023-04-26T06:19:43;99549.25;;;16.83;86.28
8705;BME280;4389;41.932;25.904;2023-04-26T06:22:10;99560.97;;;16.48;87.55
8705;BME280;4389;41.932;25.904;2023-04-26T06:24:36;99562.84;;;16.88;85.83
8705;BME280;4389;41.932;25.904;2023-04-26T06:27:03;99568.75;;;17.24;83.34
8705;BME280;4389;41.932;25.904;2023-04-26T06:29:31;99559.88;;;17.30;81.93
8705;BME280;4389;41.932;25.904;2023-04-26T06:31:58;99567.97;;;17.43;82.45
8705;BME280;4389;41.932;25.904;2023-04-26T06:34:26;99564.56;;;17.75;81.93
8705;BME280;4389;41.932;25.904;2023-04-26T06:36:53;99570.09;;;17.60;81.96
8705;BME280;4389;41.932;25.904;2023-04-26T06:39:20;99566.63;;;17.86;79.81
8705;BME280;4389;41.932;25.904;2023-04-26T06:41:46;99564.53;;;17.62;81.03
8705;BME280;4389;41.932;25.904;2023-04-26T06:44:13;99566.41;;;17.68;82.61
8705;BME280;4389;41.932;25.904;2023-04-26T06:46:40;99560.19;;;17.54;81.92
8705;BME280;4389;41.932;25.904;2023-04-26T06:49:07;99563.50;;;17.63;82.33
8705;BME280;4389;41.932;25.904;2023-04-26T06:51:36;99560.84;;;17.63;81.17
8705;BME280;4389;41.932;25.904;2023-04-26T06:54:03;99562.19;;;17.33;80.35
8705;BME280;4389;41.932;25.904;2023-04-26T06:56:30;99562.53;;;17.17;80.81
8705;BME280;4389;41.932;25.904;2023-04-26T06:58:58;99558.78;;;16.98;83.30
8705;BME280;4389;41.932;25.904;2023-04-26T07:01:26;99553.03;;;17.08;83.84
8705;BME280;4389;41.932;25.904;2023-04-26T07:03:54;99560.06;;;17.09;81.77
8705;BME280;4389;41.932;25.904;2023-04-26T07:06:21;99555.88;;;16.93;82.90
8705;BME280;4389;41.932;25.904;2023-04-26T07:08:49;99558.63;;;16.72;84.20
8705;BME280;4389;41.932;25.904;2023-04-26T07:11:16;99558.03;;;16.70;82.23
8705;BME280;4389;41.932;25.904;2023-04-26T07:13:43;99552.88;;;16.69;82.04
8705;BME280;4389;41.932;25.904;2023-04-26T07:16:10;99562.34;;;16.71;81.43
8705;BME280;4389;41.932;25.904;2023-04-26T07:18:38;99558.81;;;16.71;81.90
8705;BME280;4389;41.932;25.904;2023-04-26T07:21:05;99560.09;;;16.75;81.42
8705;BME280;4389;41.932;25.904;2023-04-26T07:23:32;99557.31;;;16.55;83.11
8705;BME280;4389;41.932;25.904;2023-04-26T07:26:00;99560.44;;;16.59;83.53
8705;BME280;4389;41.932;25.904;2023-04-26T07:28:28;99555.72;;;16.67;83.70
8705;BME280;4389;41.932;25.904;2023-04-26T07:30:56;99560.41;;;16.99;82.92
8705;BME280;4389;41.932;25.904;2023-04-26T07:33:23;99556.25;;;17.37;80.75
8705;BME280;4389;41.932;25.904;2023-04-26T07:35:52;99566.81;;;17.71;77.81
8705;BME280;4389;41.932;25.904;2023-04-26T07:38:19;99571.78;;;17.87;76.91
8705;BME280;4389;41.932;25.904;2023-04-26T07:40:46;99573.03;;;18.24;77.22
8705;BME280;4389;41.932;25.904;2023-04-26T07:43:14;99574.25;;;18.28;75.27
8705;BME280;4389;41.932;25.904;2023-04-26T07:45:41;99569.94;;;18.20;75.91
8705;BME280;4389;41.932;25.904;2023-04-26T07:48:08;99564.78;;;18.06;78.21
8705;BME280;4389;41.932;25.904;2023-04-26T07:50:35;99578.19;;;18.19;75.33
8705;BME280;4389;41.932;25.904;2023-04-26T07:53:02;99577.56;;;18.62;75.67
8705;BME280;4389;41.932;25.904;2023-04-26T07:55:29;99575.72;;;18.30;73.98
8705;BME280;4389;41.932;25.904;2023-04-26T07:57:56;99581.28;;;18.35;76.57
8705;BME280;4389;41.932;25.904;2023-04-26T08:00:24;99577.16;;;18.33;76.20
8705;BME280;4389;41.932;25.904;2023-04-26T08:02:52;99575.53;;;18.32;74.78
8705;BME280;4389;41.932;25.904;2023-04-26T08:05:19;99576.72;;;18.16;76.19
8705;BME280;4389;41.932;25.904;2023-04-26T08:07:46;99576.75;;;18.10;72.23
8705;BME280;4389;41.932;25.904;2023-04-26T08:10:13;99566.03;;;18.10;71.12
8705;BME280;4389;41.932;25.904;2023-04-26T08:12:40;99565.22;;;18.16;72.22
8705;BME280;4389;41.932;25.904;2023-04-26T08:15:07;99573.00;;;18.50;71.37
8705;BME280;4389;41.932;25.904;2023-04-26T08:17:36;99561.91;;;18.40;68.53
8705;BME280;4389;41.932;25.904;2023-04-26T08:20:03;99566.03;;;18.10;70.68
8705;BME280;4389;41.932;25.904;2023-04-26T08:22:31;99552.84;;;17.76;70.57
8705;BME280;4389;41.932;25.904;2023-04-26T08:24:58;99560.25;;;18.00;69.09
8705;BME280;4389;41.932;25.904;2023-04-26T08:27:25;99555.72;;;18.20;69.48
8705;BME280;4389;41.932;25.904;2023-04-26T08:29:52;99550.78;;;18.30;68.33
8705;BME280;4389;41.932;25.904;2023-04-26T08:32:19;99555.09;;;18.18;68.95
8705;BME280;4389;41.932;25.904;2023-04-26T08:34:47;99556.13;;;18.17;68.07
8705;BME280;4389;41.932;25.904;2023-04-26T08:37:14;99556.13;;;18.17;67.56
8705;BME280;4389;41.932;25.904;2023-04-26T08:39:41;99552.63;;;18.23;67.90
8705;BME280;4389;41.932;25.904;2023-04-26T08:42:12;99546.28;;;18.37;66.65
8705;BME280;4389;41.932;25.904;2023-04-26T08:44:41;99556.34;;;18.48;65.68
8705;BME280;4389;41.932;25.904;2023-04-26T08:47:13;99551.16;;;18.59;63.91
8705;BME280;4389;41.932;25.904;2023-04-26T08:49:43;99544.03;;;18.90;63.54
8705;BME280;4389;41.932;25.904;2023-04-26T08:52:12;99560.41;;;19.26;61.52
8705;BME280;4389;41.932;25.904;2023-04-26T08:54:40;99551.66;;;19.44;60.66
8705;BME280;4389;41.932;25.904;2023-04-26T08:57:08;99545.38;;;19.56;60.50
8705;BME280;4389;41.932;25.904;2023-04-26T08:59:35;99542.69;;;19.63;60.26
8705;BME280;4389;41.932;25.904;2023-04-26T09:02:04;99547.03;;;19.88;61.14
8705;BME280;4389;41.932;25.904;2023-04-26T09:04:31;99539.63;;;19.53;59.86
8705;BME280;4389;41.932;25.904;2023-04-26T09:06:59;99548.94;;;19.81;59.26
8705;BME280;4389;41.932;25.904;2023-04-26T09:09:33;99540.28;;;19.79;57.51
8705;BME280;4389;41.932;25.904;2023-04-26T09:12:02;99544.00;;;20.09;57.21
8705;BME280;4389;41.932;25.904;2023-04-26T09:14:29;99542.50;;;20.13;54.97
8705;BME280;4389;41.932;25.904;2023-04-26T09:16:56;99533.63;;;20.37;54.86
8705;BME280;4389;41.932;25.904;2023-04-26T09:19:34;99527.69;;;20.04;54.80
8705;BME280;4389;41.932;25.904;2023-04-26T09:22:02;99536.69;;;19.92;55.37
8705;BME280;4389;41.932;25.904;2023-04-26T09:24:45;99528.34;;;20.24;55.88
8705;BME280;4389;41.932;25.904;2023-04-26T09:27:13;99524.63;;;20.25;54.25
8705;BME280;4389;41.932;25.904;2023-04-26T09:29:42;99516.81;;;20.60;54.67
8705;BME280;4389;41.932;25.904;2023-04-26T09:32:22;99521.69;;;21.05;53.76
8705;BME280;4389;41.932;25.904;2023-04-26T09:34:50;99522.47;;;20.94;53.03
8705;BME280;4389;41.932;25.904;2023-04-26T09:37:17;99522.13;;;20.48;53.34
8705;BME280;4389;41.932;25.904;2023-04-26T09:39:46;99518.38;;;20.31;54.74
8705;BME280;4389;41.932;25.904;2023-04-26T09:42:15;99518.88;;;20.22;55.42
8705;BME280;4389;41.932;25.904;2023-04-26T09:44:43;99515.47;;;20.33;53.56
8705;BME280;4389;41.932;25.904;2023-04-26T09:47:10;99515.38;;;20.21;53.35
8705;BME280;4389;41.932;25.904;2023-04-26T09:49:45;99509.47;;;20.13;53.81
8705;BME280;4389;41.932;25.904;2023-04-26T09:52:13;99513.84;;;20.07;53.34
8705;BME280;4389;41.932;25.904;2023-04-26T09:54:43;99504.63;;;20.39;53.20
8705;BME280;4389;41.932;25.904;2023-04-26T09:57:12;99505.53;;;20.69;51.97
8705;BME280;4389;41.932;25.904;2023-04-26T09:59:44;99497.16;;;20.77;51.73
8705;BME280;4389;41.932;25.904;2023-04-26T10:02:18;99485.38;;;20.96;51.86
8705;BME280;4389;41.932;25.904;2023-04-26T10:04:47;99489.03;;;21.31;51.70
8705;BME280;4389;41.932;25.904;2023-04-26T10:07:15;99487.47;;;21.53;51.20
8705;BME280;4389;41.932;25.904;2023-04-26T10:09:43;99479.34;;;21.42;52.25
8705;BME280;4389;41.932;25.904;2023-04-26T10:12:13;99471.94;;;20.96;51.24
8705;BME280;4389;41.932;25.904;2023-04-26T10:14:41;99468.56;;;20.65;53.00
8705;BME280;4389;41.932;25.904;2023-04-26T10:17:11;99463.22;;;20.47;52.36
8705;BME280;4389;41.932;25.904;2023-04-26T10:19:40;99469.28;;;21.08;50.83
8705;BME280;4389;41.932;25.904;2023-04-26T10:22:15;99464.75;;;21.49;49.64
8705;BME280;4389;41.932;25.904;2023-04-26T10:24:44;99472.34;;;21.70;49.89
8705;BME280;4389;41.932;25.904;2023-04-26T10:27:13;99467.03;;;21.75;48.86
8705;BME280;4389;41.932;25.904;2023-04-26T10:30:06;99462.50;;;21.99;49.00
8705;BME280;4389;41.932;25.904;2023-04-26T10:36:01;99457.09;;;22.10;47.16
8705;BME280;4389;41.932;25.904;2023-04-26T10:38:29;99459.66;;;21.82;47.97
8705;BME280;4389;41.932;25.904;2023-04-26T10:41:27;99459.44;;;22.18;46.31
8705;BME280;4389;41.932;25.904;2023-04-26T10:43:59;99467.41;;;21.90;47.34
8705;BME280;4389;41.932;25.904;2023-04-26T10:46:38;99463.28;;;21.76;48.90
8705;BME280;4389;41.932;25.904;2023-04-26T10:49:15;99455.94;;;21.83;48.52
8705;BME280;4389;41.932;25.904;2023-04-26T10:52:07;99453.81;;;22.31;48.24
8705;BME280;4389;41.932;25.904;2023-04-26T10:54:48;99460.19;;;22.76;46.38
8705;BME280;4389;41.932;25.904;2023-04-26T10:57:16;99453.28;;;22.80;46.08
8705;BME280;4389;41.932;25.904;2023-04-26T11:00:19;99456.75;;;22.53;46.54
8705;BME280;4389;41.932;25.904;2023-04-26T11:02:55;99460.84;;;22.32;44.61
8705;BME280;4389;41.932;25.904;2023-04-26T11:05:47;99455.69;;;22.19;46.20
8705;BME280;4389;41.932;25.904;2023-04-26T11:08:15;99460.03;;;21.74;47.27
8705;BME280;4389;41.932;25.904;2023-04-26T11:10:45;99449.16;;;21.92;47.07
8705;BME280;4389;41.932;25.904;2023-04-26T11:13:16;99452.28;;;21.66;46.12
8705;BME280;4389;41.932;25.904;2023-04-26T11:15:46;99444.00;;;21.79;46.57
8705;BME280;4389;41.932;25.904;2023-04-26T11:18:17;99444.31;;;22.29;44.75
8705;BME280;4389;41.932;25.904;2023-04-26T11:20:45;99445.38;;;22.51;44.94
8705;BME280;4389;41.932;25.904;2023-04-26T11:23:12;99437.78;;;22.25;44.76
8705;BME280;4389;41.932;25.904;2023-04-26T11:25:39;99448.44;;;22.08;45.64
8705;BME280;4389;41.932;25.904;2023-04-26T11:28:06;99440.28;;;21.51;48.32
8705;BME280;4389;41.932;25.904;2023-04-26T11:30:33;99438.13;;;21.82;47.01
8705;BME280;4389;41.932;25.904;2023-04-26T11:33:02;99432.94;;;22.38;45.22
8705;BME280;4389;41.932;25.904;2023-04-26T11:35:32;99427.47;;;22.84;43.90
8705;BME280;4389;41.932;25.904;2023-04-26T11:37:59;99425.34;;;22.86;43.73
8705;BME280;4389;41.932;25.904;2023-04-26T11:40:29;99432.50;;;22.18;45.66
8705;BME280;4389;41.932;25.904;2023-04-26T11:43:00;99431.22;;;21.86;46.81
8705;BME280;4389;41.932;25.904;2023-04-26T11:45:27;99426.16;;;22.24;46.11
8705;BME280;4389;41.932;25.904;2023-04-26T11:47:55;99436.25;;;21.94;46.43
8705;BME280;4389;41.932;25.904;2023-04-26T11:50:24;99435.59;;;21.05;48.05
8705;BME280;4389;41.932;25.904;2023-04-26T11:52:55;99449.13;;;20.81;49.34
8705;BME280;4389;41.932;25.904;2023-04-26T11:55:23;99441.78;;;20.40;53.33
8705;BME280;4389;41.932;25.904;2023-04-26T11:57:51;99442.41;;;19.75;54.56
8705;BME280;4389;41.932;25.904;2023-04-26T12:00:19;99448.25;;;19.41;56.10
8705;BME280;4389;41.932;25.904;2023-04-26T12:02:47;99450.16;;;19.34;55.99
8705;BME280;4389;41.932;25.904;2023-04-26T12:05:21;99450.19;;;18.47;57.02
8705;BME280;4389;41.932;25.904;2023-04-26T12:07:50;99458.13;;;17.90;58.58
8705;BME280;4389;41.932;25.904;2023-04-26T12:10:21;99455.66;;;17.43;60.33
8705;BME280;4389;41.932;25.904;2023-04-26T12:12:48;99469.16;;;17.22;61.00
8705;BME280;4389;41.932;25.904;2023-04-26T12:15:15;99455.53;;;16.91;61.80
8705;BME280;4389;41.932;25.904;2023-04-26T12:17:53;99459.41;;;16.82;62.87
8705;BME280;4389;41.932;25.904;2023-04-26T12:20:32;99455.44;;;16.65;64.19
8705;BME280;4389;41.932;25.904;2023-04-26T12:23:02;99453.78;;;16.64;64.76
8705;BME280;4389;41.932;25.904;2023-04-26T12:25:31;99457.66;;;16.55;65.12
8705;BME280;4389;41.932;25.904;2023-04-26T12:27:58;99456.56;;;16.43;66.62
8705;BME280;4389;41.932;25.904;2023-04-26T12:30:27;99470.41;;;16.53;67.10
8705;BME280;4389;41.932;25.904;2023-04-26T12:32:55;99484.59;;;16.60;67.80
8705;BME280;4389;41.932;25.904;2023-04-26T12:35:22;99485.41;;;16.54;66.00
8705;BME280;4389;41.932;25.904;2023-04-26T12:37:49;99484.13;;;16.50;66.33
8705;BME280;4389;41.932;25.904;2023-04-26T12:40:19;99491.41;;;16.35;66.96
8705;BME280;4389;41.932;25.904;2023-04-26T12:42:47;99502.56;;;16.11;69.96
8705;BME280;4389;41.932;25.904;2023-04-26T12:45:14;99499.13;;;16.17;71.39
8705;BME280;4389;41.932;25.904;2023-04-26T12:47:41;99496.97;;;16.06;73.52
8705;BME280;4389;41.932;25.904;2023-04-26T12:50:08;99507.25;;;16.09;75.52
8705;BME280;4389;41.932;25.904;2023-04-26T12:52:37;99505.53;;;15.95;77.71
8705;BME280;4389;41.932;25.904;2023-04-26T12:55:06;99516.09;;;15.82;78.17
8705;BME280;4389;41.932;25.904;2023-04-26T12:57:34;99504.91;;;15.72;80.70
8705;BME280;4389;41.932;25.904;2023-04-26T13:00:02;99510.66;;;15.69;82.85
8705;BME280;4389;41.932;25.904;2023-04-26T13:02:29;99512.44;;;15.41;83.98
8705;BME280;4389;41.932;25.904;2023-04-26T13:04:57;99516.69;;;15.35;86.94
8705;BME280;4389;41.932;25.904;2023-04-26T13:07:25;99513.25;;;15.06;88.69
8705;BME280;4389;41.932;25.904;2023-04-26T13:09:52;99534.81;;;14.90;90.00
8705;BME280;4389;41.932;25.904;2023-04-26T13:12:19;99535.09;;;14.80;92.46
8705;BME280;4389;41.932;25.904;2023-04-26T13:14:47;99539.13;;;14.76;93.58
8705;BME280;4389;41.932;25.904;2023-04-26T13:17:14;99550.53;;;14.70;94.86